Colima Airport
MMIA : now visible

Airfield :











YOU CAN JOIN US ON...

 
LOGIN :

Register | Disclaimer

   EN    FR    IT 

 









Legend :    VFR   Marginal VFR   IFR   Intensive IFR   Very Intensive IFR
Visi :
Ceiling :
>= 8 km
>= 3000ft
5 to 8 km
1000 to 3000 ft
1500m to 5 km
500 to 1000 ft
800 to 1500m
200 to 500 ft
< 800m
< 200 ft
Symbols :   Thunderstorms  Fog  Heavy snow  Heavy precipitations  Wind > 20 kt






- Airport Elevation : 2467 ft
- IATA code : CLQ


MMIA - Colima

CURRENT METAR :
  • 101240Z 01008KT 6SM SKC 24/04 A2998

EXPIRED METARs :
  • 101200Z RTD 00000KT 6SM SKC 24/06 A2997 RMK RTS

TAF TAF MMIA
Valid from the 10 at 06:00 until the 11 at 06:00 UTC


100500Z 1006/1106 00000KT 6SM HZ SKC
FM101800 22010KT P6SM SKC
FM110300 23005KT 6SM HZ SKC



MET'MAP, your aeronautical weather chart ! - Copyright ORBIFLY December 2007 - Disclaimer

ORBIFLY MET'MAP TEAM :

Programming & Development : Alexandra Zaïnal
Concept & original design : Baudouin d'Aumeries
Assistance for programming : Marc-Olivier Méhu
Technical & hardware support : Manuel Goepfert

Contact : metmap@orbifly.com




SOURCES & CREDITS :

   NOAA       Earth
Advisory